AAL1996 KMIA-KMSY
Flight info
| Callsign | AAL1996 |
|---|---|
| Flight time | N/A |
| Altitude | 36000 |
| Route | GLADZ4 BAGGS REMIS Y280 REDFN HRV |
| Aircraft | A321/M-SDE3FGHIRWY/LB1 |
Departure
| Time | 2026-05-04 03:34 |
|---|---|
| Airport | Miami International Airport (KMIA) |
Arrival
| Time | N/A |
|---|---|
| Airport | Louis Armstrong New Orleans International Airport (KMSY) |
| Time | Latitude | Longitude | Altitude | Speed | Heading |
|---|---|---|---|---|---|
| 2026-05-04 03:11 | 25.79914 | -80.27223 | 22 ft | 0 kts | 179° |
| 2026-05-04 03:21 | 25.79926 | -80.27223 | 24 ft | 3 kts | 179° |
| 2026-05-04 03:22 | 25.79939 | -80.27223 | 24 ft | 0 kts | 179° |
| 2026-05-04 03:23 | 25.79951 | -80.27222 | 25 ft | 3 kts | 210° |
| 2026-05-04 03:23 | 25.79967 | -80.27211 | 24 ft | 3 kts | 214° |
| 2026-05-04 03:23 | 25.79978 | -80.27195 | 24 ft | 2 kts | 268° |
| 2026-05-04 03:24 | 25.79979 | -80.27175 | 26 ft | 3 kts | 273° |
| 2026-05-04 03:24 | 25.79978 | -80.27154 | 26 ft | 3 kts | 273° |
| 2026-05-04 03:24 | 25.79977 | -80.27134 | 26 ft | 3 kts | 273° |
| 2026-05-04 03:24 | 25.79977 | -80.27114 | 25 ft | 3 kts | 273° |
| 2026-05-04 03:25 | 25.79975 | -80.27094 | 25 ft | 3 kts | 287° |
| 2026-05-04 03:25 | 25.79970 | -80.27075 | 23 ft | 3 kts | 307° |
| 2026-05-04 03:25 | 25.79959 | -80.27060 | 24 ft | 2 kts | 309° |
| 2026-05-04 03:25 | 25.79951 | -80.27049 | 23 ft | 0 kts | 309° |
| 2026-05-04 03:27 | 25.79960 | -80.27060 | 24 ft | 5 kts | 309° |
| 2026-05-04 03:27 | 25.79988 | -80.27093 | 23 ft | 6 kts | 323° |
| 2026-05-04 03:27 | 25.80033 | -80.27100 | 21 ft | 7 kts | 11° |
| 2026-05-04 03:28 | 25.80082 | -80.27117 | 21 ft | 10 kts | 307° |
| 2026-05-04 03:28 | 25.80081 | -80.27206 | 22 ft | 13 kts | 267° |
| 2026-05-04 03:28 | 25.80076 | -80.27328 | 21 ft | 19 kts | 268° |
| 2026-05-04 03:28 | 25.80068 | -80.27495 | 17 ft | 25 kts | 270° |
| 2026-05-04 03:29 | 25.80062 | -80.27692 | 16 ft | 26 kts | 268° |
| 2026-05-04 03:29 | 25.80056 | -80.27898 | 12 ft | 28 kts | 268° |
| 2026-05-04 03:29 | 25.80044 | -80.28115 | 13 ft | 28 kts | 267° |
| 2026-05-04 03:29 | 25.80035 | -80.28325 | 15 ft | 27 kts | 267° |
| 2026-05-04 03:30 | 25.80027 | -80.28536 | 17 ft | 27 kts | 268° |
| 2026-05-04 03:30 | 25.80020 | -80.28733 | 22 ft | 25 kts | 268° |
| 2026-05-04 03:30 | 25.80013 | -80.28927 | 21 ft | 26 kts | 266° |
| 2026-05-04 03:30 | 25.80003 | -80.29129 | 21 ft | 26 kts | 267° |
| 2026-05-04 03:31 | 25.79995 | -80.29329 | 19 ft | 27 kts | 268° |
| 2026-05-04 03:31 | 25.79987 | -80.29554 | 13 ft | 30 kts | 267° |
| 2026-05-04 03:31 | 25.79977 | -80.29781 | 13 ft | 30 kts | 267° |
| 2026-05-04 03:31 | 25.79971 | -80.29904 | 12 ft | 30 kts | 267° |
| 2026-05-04 03:32 | 25.79969 | -80.29957 | 11 ft | 25 kts | 267° |
| 2026-05-04 03:32 | 25.79969 | -80.29978 | 11 ft | 1 kts | 271° |
| 2026-05-04 03:32 | 25.79975 | -80.30030 | 12 ft | 15 kts | 281° |
| 2026-05-04 03:32 | 25.80040 | -80.30123 | 15 ft | 16 kts | 354° |
| 2026-05-04 03:33 | 25.80080 | -80.30025 | 13 ft | 17 kts | 88° |
| 2026-05-04 03:33 | 25.80086 | -80.29716 | 14 ft | 79 kts | 88° |
| 2026-05-04 03:33 | 25.80132 | -80.28801 | 21 ft | 154 kts | 86° |
| 2026-05-04 03:33 | 25.80194 | -80.27452 | 538 ft | 174 kts | 85° |
| 2026-05-04 03:34 | 25.80268 | -80.26120 | 1479 ft | 178 kts | 86° |
| 2026-05-04 03:34 | 25.80337 | -80.24705 | 2031 ft | 191 kts | 90° |
| 2026-05-04 03:34 | 25.80393 | -80.23149 | 2209 ft | 213 kts | 89° |
| 2026-05-04 03:34 | 25.80453 | -80.21444 | 2372 ft | 236 kts | 89° |
| 2026-05-04 03:35 | 25.80523 | -80.19500 | 2489 ft | 269 kts | 89° |
| 2026-05-04 03:35 | 25.80598 | -80.17312 | 2712 ft | 296 kts | 89° |
| 2026-05-04 03:35 | 25.80674 | -80.15003 | 2950 ft | 292 kts | 89° |
| 2026-05-04 03:35 | 25.80743 | -80.12839 | 3120 ft | 271 kts | 89° |
| 2026-05-04 03:36 | 25.80795 | -80.10813 | 3253 ft | 256 kts | 90° |
| 2026-05-04 03:36 | 25.80870 | -80.08865 | 3337 ft | 251 kts | 77° |
| 2026-05-04 03:36 | 25.81726 | -80.07221 | 3378 ft | 247 kts | 39° |
| 2026-05-04 03:36 | 25.83229 | -80.06414 | 3413 ft | 239 kts | 6° |
| 2026-05-04 03:37 | 25.84817 | -80.06570 | 3713 ft | 225 kts | 335° |
| 2026-05-04 03:37 | 25.86127 | -80.07464 | 4087 ft | 219 kts | 319° |
| 2026-05-04 03:37 | 25.87370 | -80.08475 | 4262 ft | 224 kts | 324° |
| 2026-05-04 03:37 | 25.88227 | -80.09145 | 4332 ft | 229 kts | 321° |
| 2026-05-04 03:38 | 25.89536 | -80.10204 | 4446 ft | 236 kts | 322° |
| 2026-05-04 03:38 | 25.90900 | -80.11296 | 4447 ft | 248 kts | 317° |
| 2026-05-04 03:38 | 25.92169 | -80.12693 | 4264 ft | 267 kts | 309° |
| 2026-05-04 03:38 | 25.93242 | -80.14448 | 3984 ft | 285 kts | 291° |